createdAt,value
2022-08-05T00:00:16.012Z,49.69
2022-08-05T00:02:51.556Z,49.96
2022-08-05T00:06:03.096Z,50.04
2022-08-05T00:08:34.282Z,49.71
2022-08-05T00:11:00.972Z,49.71
2022-08-05T00:13:38.685Z,50.34
2022-08-05T00:16:12.145Z,50.74
2022-08-05T00:18:42.924Z,50.44
2022-08-05T00:21:14.486Z,51.60
2022-08-05T00:23:46.843Z,51.99
2022-08-05T00:26:22.290Z,52.88
2022-08-05T00:28:50.745Z,53.73
2022-08-05T00:31:54.035Z,54.01
2022-08-05T00:34:53.547Z,53.96
2022-08-05T00:37:10.880Z,54.61
2022-08-05T00:39:57.300Z,54.41
2022-08-05T00:42:34.146Z,54.45
2022-08-05T00:45:01.877Z,54.84
2022-08-05T00:47:49.233Z,55.14
2022-08-05T00:50:17.634Z,55.42
2022-08-05T00:52:45.319Z,55.49
2022-08-05T00:55:14.826Z,55.37
2022-08-05T00:57:58.411Z,55.81
2022-08-05T01:00:28.129Z,56.03
2022-08-05T01:02:56.665Z,55.98
2022-08-05T01:05:27.580Z,55.82
2022-08-05T01:08:39.839Z,55.95
2022-08-05T01:10:51.725Z,56.45
2022-08-05T01:13:27.190Z,56.77
2022-08-05T01:16:00.053Z,56.47
2022-08-05T01:18:32.693Z,56.42
2022-08-05T01:21:12.275Z,56.00
2022-08-05T01:24:03.335Z,56.41
2022-08-05T01:26:57.978Z,56.43
2022-08-05T01:29:33.153Z,56.10
2022-08-05T01:32:07.458Z,55.89
2022-08-05T01:34:49.510Z,56.43
2022-08-05T01:37:25.086Z,57.34
2022-08-05T01:39:59.117Z,56.73
2022-08-05T01:42:28.758Z,57.66
2022-08-05T01:45:00.156Z,57.87
2022-08-05T01:47:39.700Z,58.50
2022-08-05T01:50:15.314Z,58.09
2022-08-05T01:52:44.980Z,58.31
2022-08-05T01:55:21.485Z,58.40
2022-08-05T01:58:10.464Z,60.25
2022-08-05T02:00:45.204Z,60.76
2022-08-05T02:03:24.191Z,61.71
2022-08-05T02:05:59.774Z,61.41
2022-08-05T02:08:31.256Z,61.52
2022-08-05T02:11:03.621Z,61.77
2022-08-05T02:13:53.128Z,61.05
2022-08-05T02:16:28.280Z,61.03
2022-08-05T02:19:01.417Z,62.20
2022-08-05T02:21:43.407Z,63.38
2022-08-05T02:24:19.694Z,62.74
2022-08-05T02:26:55.273Z,64.51
2022-08-05T02:29:26.142Z,65.72
2022-08-05T02:32:19.824Z,66.44
2022-08-05T02:34:54.987Z,65.97
2022-08-05T02:37:25.012Z,66.95
2022-08-05T02:39:53.491Z,66.70
2022-08-05T02:42:26.006Z,65.88
2022-08-05T02:44:56.122Z,65.70
2022-08-05T02:48:06.747Z,67.53
2022-08-05T02:50:18.116Z,70.31
2022-08-05T02:52:47.718Z,70.98
2022-08-05T02:55:17.586Z,74.65
2022-08-05T02:58:20.021Z,76.45
2022-08-05T03:00:48.593Z,71.94
2022-08-05T03:03:19.904Z,76.71
2022-08-05T03:06:56.562Z,76.43
2022-08-05T03:08:42.538Z,78.30
2022-08-05T03:11:56.042Z,77.76
2022-08-05T03:14:09.558Z,77.49
2022-08-05T03:16:41.550Z,74.43
2022-08-05T03:19:17.357Z,73.89
2022-08-05T03:21:58.481Z,75.85
2022-08-05T03:24:30.246Z,76.54
2022-08-05T03:26:58.667Z,76.66
2022-08-05T03:29:46.018Z,76.68
2022-08-05T03:32:16.247Z,77.97
2022-08-05T03:34:50.502Z,80.24
2022-08-05T03:37:20.411Z,80.21
2022-08-05T03:40:00.988Z,81.55
2022-08-05T03:42:32.082Z,79.40
2022-08-05T03:45:01.713Z,80.91
2022-08-05T03:47:47.776Z,79.58
2022-08-05T03:50:18.707Z,79.21
2022-08-05T03:55:34.402Z,80.21
2022-08-05T03:56:01.144Z,81.54
2022-08-05T03:58:37.789Z,82.21
2022-08-05T04:01:11.076Z,83.08
2022-08-05T04:04:08.988Z,83.87
2022-08-05T04:06:34.069Z,84.25
2022-08-05T04:09:02.844Z,84.94
2022-08-05T04:11:47.155Z,83.95
2022-08-05T04:14:19.730Z,83.61
2022-08-05T04:16:59.498Z,82.67
2022-08-05T04:19:27.265Z,83.74
2022-08-05T04:22:08.278Z,84.07
2022-08-05T04:24:38.832Z,84.36
2022-08-05T04:27:12.894Z,84.85
2022-08-05T04:29:41.158Z,85.23
2022-08-05T04:32:09.276Z,84.67
2022-08-05T04:34:43.010Z,84.22
2022-08-05T04:37:20.852Z,83.51
2022-08-05T04:40:00.178Z,84.21
2022-08-05T04:42:27.818Z,83.51
2022-08-05T04:44:55.427Z,83.83
2022-08-05T04:47:23.218Z,84.63
2022-08-05T04:50:02.918Z,84.67
2022-08-05T04:52:39.969Z,84.89
2022-08-05T04:55:14.450Z,85.24
2022-08-05T04:57:47.881Z,84.21
2022-08-05T05:00:23.197Z,84.42
2022-08-05T05:02:51.558Z,83.38
2022-08-05T05:05:28.944Z,82.35
2022-08-05T05:08:02.421Z,82.32
2022-08-05T05:10:33.276Z,83.20
2022-08-05T05:13:01.891Z,83.17
2022-08-05T05:15:56.714Z,82.67
2022-08-05T05:18:31.626Z,82.08
2022-08-05T05:21:03.555Z,81.33
2022-08-05T05:24:01.731Z,80.89
2022-08-05T05:26:28.299Z,80.18
2022-08-05T05:29:00.437Z,77.67
2022-08-05T05:31:35.771Z,76.29
2022-08-05T05:34:02.600Z,74.81
2022-08-05T05:36:31.742Z,74.39
2022-08-05T05:39:03.739Z,72.17
2022-08-05T05:41:40.739Z,73.74
2022-08-05T05:44:35.921Z,72.55
2022-08-05T05:46:58.099Z,75.31
2022-08-05T05:49:26.154Z,76.37
2022-08-05T05:51:53.970Z,75.02
2022-08-05T05:54:49.772Z,72.83
2022-08-05T05:57:19.184Z,72.57
2022-08-05T05:59:47.621Z,71.64
2022-08-05T06:02:16.885Z,71.34
2022-08-05T06:04:44.668Z,71.59
2022-08-05T06:07:16.970Z,70.38
2022-08-05T06:10:00.565Z,69.53
2022-08-05T06:12:30.072Z,68.83
2022-08-05T06:14:57.722Z,68.37
2022-08-05T06:17:31.060Z,68.81
2022-08-05T06:19:59.518Z,62.74
2022-08-05T06:22:29.403Z,58.88
2022-08-05T06:24:58.855Z,58.86
2022-08-05T06:28:12.385Z,59.98
2022-08-05T06:30:17.928Z,62.50
2022-08-05T06:32:50.616Z,62.68
2022-08-05T06:36:03.349Z,62.83
2022-08-05T06:38:11.112Z,62.49
2022-08-05T06:40:42.099Z,61.70
2022-08-05T06:43:57.507Z,58.13
2022-08-05T06:46:03.723Z,51.56
2022-08-05T06:48:53.574Z,48.92
2022-08-05T06:51:29.427Z,47.58
2022-08-05T06:53:58.749Z,49.52
2022-08-05T06:56:30.051Z,50.27
2022-08-05T06:59:01.131Z,51.09
2022-08-05T07:01:32.234Z,53.26
2022-08-05T07:04:01.261Z,61.80
2022-08-05T07:06:29.015Z,60.46
2022-08-05T07:08:56.652Z,62.00
2022-08-05T07:11:28.718Z,62.74
2022-08-05T07:14:15.515Z,65.64
2022-08-05T07:18:00.090Z,66.99
2022-08-05T07:20:16.806Z,67.19
2022-08-05T07:22:28.346Z,68.02
2022-08-05T07:24:57.938Z,69.79
2022-08-05T07:27:27.642Z,70.31
2022-08-05T07:30:27.399Z,70.82
2022-08-05T07:32:58.250Z,70.21
2022-08-05T07:36:02.439Z,69.43
2022-08-05T07:38:34.260Z,71.23
2022-08-05T07:41:16.484Z,69.85
2022-08-05T07:43:51.684Z,68.90
2022-08-05T07:46:24.602Z,69.29
2022-08-05T07:49:02.363Z,71.07
2022-08-05T07:51:36.771Z,70.50
2022-08-05T07:54:05.803Z,70.89
2022-08-05T07:56:59.970Z,71.20
2022-08-05T07:59:31.003Z,69.60
2022-08-05T08:02:07.201Z,69.26
2022-08-05T08:04:44.835Z,69.52
2022-08-05T08:07:13.217Z,69.17
2022-08-05T08:09:40.763Z,69.78
2022-08-05T08:12:19.896Z,69.07
2022-08-05T08:15:02.184Z,69.46
2022-08-05T08:17:30.834Z,69.66
2022-08-05T08:20:10.842Z,71.15
2022-08-05T08:22:51.960Z,71.43
2022-08-05T08:25:27.109Z,70.60
2022-08-05T08:28:07.377Z,69.56
2022-08-05T08:30:49.860Z,68.49
2022-08-05T08:33:19.120Z,68.60
2022-08-05T08:35:53.067Z,66.25
2022-08-05T08:38:35.839Z,65.60
2022-08-05T08:41:07.249Z,65.86
2022-08-05T08:45:19.143Z,65.92
2022-08-05T08:46:27.504Z,65.27
2022-08-05T08:49:08.034Z,64.37
2022-08-05T08:52:03.455Z,63.76
2022-08-05T08:54:36.215Z,61.31
2022-08-05T08:57:11.230Z,60.92
2022-08-05T08:59:41.654Z,60.18
2022-08-05T09:02:18.859Z,59.70
2022-08-05T09:05:16.085Z,60.78
2022-08-05T09:07:39.974Z,59.66
2022-08-05T09:10:27.942Z,58.48
2022-08-05T09:13:04.730Z,59.13
2022-08-05T09:15:36.912Z,58.92
2022-08-05T09:18:08.774Z,58.47
2022-08-05T09:20:37.746Z,59.96
2022-08-05T09:23:18.821Z,60.80
2022-08-05T09:26:02.044Z,60.63
2022-08-05T09:28:33.733Z,60.33
2022-08-05T09:31:23.511Z,60.26
2022-08-05T09:33:56.536Z,60.50
2022-08-05T09:36:27.454Z,60.79
2022-08-05T09:39:02.664Z,59.49
2022-08-05T09:41:32.804Z,59.54
2022-08-05T09:44:05.811Z,58.41
2022-08-05T09:46:36.122Z,58.70
2022-08-05T09:49:19.161Z,58.02
2022-08-05T09:51:49.512Z,58.85
2022-08-05T09:54:21.375Z,60.13
2022-08-05T09:57:01.197Z,59.53
2022-08-05T09:59:29.732Z,58.67
2022-08-05T10:02:03.452Z,58.86
2022-08-05T10:04:39.648Z,59.59
2022-08-05T10:07:19.895Z,59.33
2022-08-05T10:10:13.972Z,56.29
2022-08-05T10:12:50.024Z,54.89
2022-08-05T10:15:25.577Z,54.40
2022-08-05T10:18:06.073Z,54.22
2022-08-05T10:20:39.481Z,54.75
2022-08-05T10:23:21.920Z,55.28
2022-08-05T10:25:56.705Z,55.07
2022-08-05T10:28:30.423Z,55.17
2022-08-05T10:32:48.445Z,55.73
2022-08-05T10:33:54.262Z,53.78
2022-08-05T10:36:26.081Z,52.59
2022-08-05T10:39:01.545Z,52.00
2022-08-05T10:41:47.348Z,51.32
2022-08-05T10:44:19.773Z,50.90
2022-08-05T10:46:50.886Z,51.32
2022-08-05T10:49:26.779Z,51.64
2022-08-05T10:52:00.369Z,51.06
2022-08-05T10:54:56.731Z,52.29
2022-08-05T10:57:29.351Z,51.41
2022-08-05T11:00:19.826Z,52.18
2022-08-05T11:03:24.810Z,51.55
2022-08-05T11:06:05.755Z,51.59
2022-08-05T11:08:39.133Z,50.92
2022-08-05T11:11:52.170Z,49.79
2022-08-05T11:14:56.296Z,49.25
2022-08-05T11:17:57.290Z,48.90
2022-08-05T11:20:41.964Z,49.54
2022-08-05T11:24:02.752Z,50.20
2022-08-05T11:26:28.953Z,49.66
2022-08-05T11:29:06.893Z,49.06
2022-08-05T11:31:58.536Z,50.20
2022-08-05T11:34:39.134Z,51.33
2022-08-05T11:38:29.336Z,50.96
2022-08-05T11:40:03.171Z,51.98
2022-08-05T11:42:40.530Z,52.21
2022-08-05T11:45:23.110Z,50.98
2022-08-05T11:47:58.865Z,50.80
2022-08-05T11:50:26.878Z,50.99
2022-08-05T11:52:57.909Z,50.47
2022-08-05T11:55:32.355Z,49.35
2022-08-05T11:58:09.711Z,47.64
2022-08-05T12:00:41.226Z,47.05
2022-08-05T12:03:29.481Z,46.65
2022-08-05T12:06:01.767Z,48.15
2022-08-05T12:08:31.476Z,47.38
2022-08-05T12:11:06.047Z,48.33
2022-08-05T12:13:48.719Z,48.85
2022-08-05T12:16:19.965Z,48.93
2022-08-05T12:18:53.889Z,47.96
2022-08-05T12:21:24.082Z,47.75
2022-08-05T12:24:00.150Z,48.96
2022-08-05T12:26:33.668Z,47.81
2022-08-05T12:29:03.708Z,48.72
2022-08-05T12:31:41.512Z,49.31
2022-08-05T12:34:21.610Z,48.61
2022-08-05T12:36:52.441Z,47.95
2022-08-05T12:39:20.431Z,48.88
2022-08-05T12:41:48.761Z,49.31
2022-08-05T12:44:28.666Z,49.24
2022-08-05T12:47:01.865Z,49.90
2022-08-05T12:50:01.969Z,50.28
2022-08-05T12:52:35.288Z,50.59
2022-08-05T12:55:18.102Z,51.42
2022-08-05T12:58:49.408Z,51.66
2022-08-05T13:02:02.521Z,51.76
2022-08-05T13:03:32.082Z,52.16
2022-08-05T13:06:00.936Z,51.19
2022-08-05T13:08:30.147Z,50.58
2022-08-05T13:11:00.855Z,50.53
2022-08-05T13:14:05.965Z,49.31
2022-08-05T13:16:19.469Z,48.59
2022-08-05T13:18:58.887Z,49.37
2022-08-05T13:21:27.691Z,49.47
2022-08-05T13:23:56.333Z,49.48
2022-08-05T13:26:29.928Z,49.54
2022-08-05T13:28:59.268Z,50.00
2022-08-05T13:31:33.758Z,50.31
2022-08-05T13:34:23.890Z,49.93
2022-08-05T13:36:53.792Z,49.67
2022-08-05T13:40:13.987Z,49.81
2022-08-05T13:42:14.311Z,49.51
2022-08-05T13:44:45.474Z,48.60
2022-08-05T13:47:35.783Z,48.27
2022-08-05T13:50:06.543Z,49.12
2022-08-05T13:52:37.355Z,48.72
2022-08-05T13:55:07.674Z,49.27
2022-08-05T13:57:50.573Z,50.06
2022-08-05T14:00:19.780Z,51.32
2022-08-05T14:02:57.303Z,53.05
2022-08-05T14:05:48.046Z,55.10
2022-08-05T14:08:21.129Z,58.95
2022-08-05T14:11:03.334Z,59.60
2022-08-05T14:13:42.983Z,60.75
2022-08-05T14:16:11.308Z,62.41
2022-08-05T14:18:40.629Z,60.41
2022-08-05T14:21:23.829Z,60.21
2022-08-05T14:23:56.174Z,60.73
2022-08-05T14:26:38.368Z,58.63
2022-08-05T14:29:16.766Z,58.75
2022-08-05T14:32:03.751Z,59.04
2022-08-05T14:34:35.089Z,56.98
2022-08-05T14:37:04.112Z,56.37
2022-08-05T14:39:50.259Z,56.23
2022-08-05T14:42:21.834Z,56.47
2022-08-05T14:44:57.270Z,55.32
2022-08-05T14:48:05.474Z,53.27
2022-08-05T14:50:19.147Z,53.22
2022-08-05T14:52:56.815Z,54.80
2022-08-05T14:55:38.671Z,55.25
2022-08-05T14:58:11.002Z,55.14
2022-08-05T15:00:39.785Z,55.79
2022-08-05T15:03:27.485Z,56.33
2022-08-05T15:06:07.326Z,57.16
2022-08-05T15:08:59.439Z,57.88
2022-08-05T15:11:51.711Z,58.40
2022-08-05T15:14:33.995Z,58.86
2022-08-05T15:17:04.540Z,59.35
2022-08-05T15:19:32.356Z,59.65
2022-08-05T15:22:01.704Z,60.46
2022-08-05T15:24:29.880Z,61.50
2022-08-05T15:26:58.457Z,61.14
2022-08-05T15:29:29.729Z,61.42
2022-08-05T15:32:02.284Z,61.46
2022-08-05T15:34:32.086Z,60.65
2022-08-05T15:37:07.008Z,60.58
2022-08-05T15:41:04.709Z,60.94
2022-08-05T15:42:54.261Z,61.08
2022-08-05T15:45:18.974Z,61.79
2022-08-05T15:48:07.069Z,61.65
2022-08-05T15:50:34.799Z,61.78
2022-08-05T15:53:05.428Z,61.94
2022-08-05T15:56:01.429Z,61.72
2022-08-05T15:58:21.160Z,62.28
2022-08-05T16:01:04.349Z,63.23
2022-08-05T16:03:40.898Z,62.63
2022-08-05T16:06:11.159Z,61.65
2022-08-05T16:08:40.746Z,61.36
2022-08-05T16:11:08.691Z,60.97
2022-08-05T16:13:36.345Z,61.66
2022-08-05T16:16:04.015Z,61.19
2022-08-05T16:18:32.700Z,61.64
2022-08-05T16:21:04.585Z,61.65
2022-08-05T16:23:51.015Z,61.89
2022-08-05T16:26:26.483Z,62.32
2022-08-05T16:28:55.094Z,62.39
2022-08-05T16:31:23.221Z,62.19
2022-08-05T16:33:52.070Z,62.77
2022-08-05T16:36:23.800Z,61.78
2022-08-05T16:38:55.127Z,61.96
2022-08-05T16:42:14.087Z,62.65
2022-08-05T16:44:14.225Z,61.95
2022-08-05T16:46:55.929Z,61.15
2022-08-05T16:49:26.412Z,61.25
2022-08-05T16:51:57.026Z,61.07
2022-08-05T16:54:29.005Z,60.72
2022-08-05T16:57:01.554Z,60.87
2022-08-05T16:59:30.753Z,60.18
2022-08-05T17:01:59.323Z,60.59
2022-08-05T17:04:28.772Z,59.38
2022-08-05T17:07:00.653Z,59.88
2022-08-05T17:09:29.993Z,59.10
2022-08-05T17:11:59.379Z,58.71
2022-08-05T17:14:36.834Z,58.58
2022-08-05T17:17:06.508Z,58.62
2022-08-05T17:19:37.050Z,59.22
2022-08-05T17:22:05.151Z,59.72
2022-08-05T17:24:39.073Z,59.77
2022-08-05T17:27:16.162Z,59.17
2022-08-05T17:29:48.010Z,59.33
2022-08-05T17:32:19.209Z,60.05
2022-08-05T17:34:49.147Z,59.87
2022-08-05T17:37:40.002Z,59.76
2022-08-05T17:40:10.021Z,59.23
2022-08-05T17:42:41.706Z,58.81
2022-08-05T17:45:20.502Z,59.45
2022-08-05T17:47:53.943Z,59.08
2022-08-05T17:50:29.608Z,59.68
2022-08-05T17:52:59.887Z,59.79
2022-08-05T17:55:37.791Z,59.76
2022-08-05T17:58:11.013Z,59.76
2022-08-05T18:00:44.643Z,60.31
2022-08-05T18:03:28.201Z,60.14
2022-08-05T18:06:04.518Z,60.17
2022-08-05T18:08:33.728Z,60.63
2022-08-05T18:11:03.217Z,60.84
2022-08-05T18:13:36.941Z,60.79
2022-08-05T18:16:14.246Z,61.30
2022-08-05T18:18:48.027Z,59.78
2022-08-05T18:21:20.020Z,60.23
2022-08-05T18:23:53.779Z,60.96
2022-08-05T18:26:21.813Z,58.79
2022-08-05T18:28:56.398Z,56.68
2022-08-05T18:31:25.794Z,56.58
2022-08-05T18:34:00.798Z,55.57
2022-08-05T18:36:29.394Z,55.06
2022-08-05T18:38:57.108Z,54.61
2022-08-05T18:41:53.540Z,54.46
2022-08-05T18:44:13.316Z,54.04
2022-08-05T18:46:43.168Z,53.76
2022-08-05T18:49:30.505Z,54.02
2022-08-05T18:52:15.907Z,54.55
2022-08-05T18:54:45.897Z,54.87
2022-08-05T18:57:15.292Z,55.01
2022-08-05T19:00:03.312Z,55.97
2022-08-05T19:02:32.841Z,55.85
2022-08-05T19:06:05.532Z,56.52
2022-08-05T19:07:49.875Z,56.96
2022-08-05T19:10:18.284Z,57.23
2022-08-05T19:12:54.362Z,57.39
2022-08-05T19:15:58.199Z,57.85
2022-08-05T19:18:20.976Z,57.48
2022-08-05T19:20:51.514Z,58.61
2022-08-05T19:24:05.806Z,58.34
2022-08-05T19:26:09.185Z,59.01
2022-08-05T19:28:41.577Z,58.52
2022-08-05T19:31:09.628Z,58.69
2022-08-05T19:33:48.159Z,58.55
2022-08-05T19:36:24.707Z,59.20
2022-08-05T19:38:52.466Z,59.46
2022-08-05T19:41:21.920Z,59.04
2022-08-05T19:44:13.153Z,58.67
2022-08-05T19:46:43.653Z,58.89
2022-08-05T19:49:17.072Z,59.10
2022-08-05T19:52:13.336Z,58.65
2022-08-05T19:54:34.657Z,59.23
2022-08-05T19:57:06.749Z,59.57
2022-08-05T19:59:56.103Z,59.36
2022-08-05T20:02:27.092Z,60.48
2022-08-05T20:04:58.597Z,60.33
2022-08-05T20:07:46.397Z,60.41
2022-08-05T20:10:14.997Z,60.17
2022-08-05T20:12:46.062Z,60.32
2022-08-05T20:15:23.398Z,60.13
2022-08-05T20:18:04.415Z,59.31
2022-08-05T20:20:44.392Z,59.39
2022-08-05T20:23:12.555Z,59.15
2022-08-05T20:25:40.597Z,59.10
2022-08-05T20:28:13.737Z,58.73
2022-08-05T20:30:42.596Z,58.88
2022-08-05T20:33:10.175Z,59.55
2022-08-05T20:35:40.521Z,59.26
2022-08-05T20:38:22.649Z,58.35
2022-08-05T20:40:56.303Z,57.86
2022-08-05T20:43:57.410Z,58.32
2022-08-05T20:46:18.573Z,57.85
2022-08-05T20:48:52.923Z,57.32
2022-08-05T20:51:22.575Z,57.62
2022-08-05T20:53:56.226Z,57.29
2022-08-05T20:56:28.869Z,56.92
2022-08-05T20:58:59.980Z,57.27
2022-08-05T21:01:43.090Z,56.73
2022-08-05T21:04:10.938Z,56.81
2022-08-05T21:06:45.311Z,56.89
2022-08-05T21:09:16.064Z,57.15
2022-08-05T21:12:10.728Z,56.80
2022-08-05T21:14:35.264Z,57.39
2022-08-05T21:17:05.118Z,57.17
2022-08-05T21:19:47.375Z,57.09
2022-08-05T21:22:21.754Z,57.48
2022-08-05T21:24:52.789Z,57.68
2022-08-05T21:27:25.209Z,57.74
2022-08-05T21:29:55.804Z,57.25
2022-08-05T21:32:26.757Z,57.58
2022-08-05T21:35:06.850Z,58.04
2022-08-05T21:37:47.349Z,58.39
2022-08-05T21:40:23.259Z,58.58
2022-08-05T21:42:52.055Z,58.54
2022-08-05T21:45:24.793Z,59.28
2022-08-05T21:47:56.803Z,59.27
2022-08-05T21:50:25.960Z,58.88
2022-08-05T21:52:53.651Z,59.56
2022-08-05T21:55:42.849Z,59.32
2022-08-05T21:58:16.547Z,60.04
2022-08-05T22:00:51.298Z,59.59
2022-08-05T22:03:20.647Z,59.49
2022-08-05T22:06:08.220Z,59.89
2022-08-05T22:08:36.801Z,60.43
2022-08-05T22:11:15.390Z,60.08
2022-08-05T22:14:19.894Z,60.03
2022-08-05T22:20:14.968Z,60.63
2022-08-05T22:23:01.770Z,60.51
2022-08-05T22:26:10.481Z,60.36
2022-08-05T22:28:40.643Z,60.09
2022-08-05T22:31:08.252Z,60.10
2022-08-05T22:33:56.668Z,60.47
2022-08-05T22:36:26.064Z,60.82
2022-08-05T22:38:53.867Z,61.44
2022-08-05T22:42:04.946Z,61.54
2022-08-05T22:44:12.028Z,62.22
2022-08-05T22:46:40.744Z,62.48
2022-08-05T22:49:23.317Z,62.54
2022-08-05T22:52:07.133Z,62.56
2022-08-05T22:54:40.519Z,62.59
2022-08-05T22:57:16.550Z,63.20
2022-08-05T22:59:53.799Z,62.90
2022-08-05T23:02:29.583Z,63.57
2022-08-05T23:04:58.101Z,63.69
2022-08-05T23:07:30.419Z,64.39
2022-08-05T23:10:01.957Z,63.78
2022-08-05T23:12:32.546Z,64.11
2022-08-05T23:15:03.095Z,64.52
2022-08-05T23:17:32.743Z,63.68
2022-08-05T23:20:16.616Z,63.63
2022-08-05T23:22:47.486Z,62.71
2022-08-05T23:25:17.654Z,63.17
2022-08-05T23:28:07.032Z,62.62
2022-08-05T23:30:39.690Z,62.44
2022-08-05T23:33:07.504Z,61.29
2022-08-05T23:35:50.994Z,61.31
2022-08-05T23:38:19.058Z,61.17
2022-08-05T23:40:49.714Z,59.23
2022-08-05T23:43:24.811Z,59.86
2022-08-05T23:46:19.839Z,59.84
2022-08-05T23:49:00.389Z,59.51
2022-08-05T23:51:52.638Z,59.60
2022-08-05T23:54:25.829Z,60.29
2022-08-05T23:56:55.563Z,60.07
2022-08-05T23:59:27.815Z,59.82
